sensor_id;sensor_type;location;lat;lon;timestamp;P1;durP1;ratioP1;P2;durP2;ratioP2
25627;SDS011;40915;50.826;4.356;2024-03-06T00:01:18;6.87;;;4.40;;
25627;SDS011;40915;50.826;4.356;2024-03-06T00:03:44;8.00;;;5.10;;
25627;SDS011;40915;50.826;4.356;2024-03-06T00:06:10;8.03;;;5.40;;
25627;SDS011;40915;50.826;4.356;2024-03-06T00:08:36;7.57;;;4.80;;
25627;SDS011;40915;50.826;4.356;2024-03-06T00:11:02;7.10;;;4.37;;
25627;SDS011;40915;50.826;4.356;2024-03-06T00:13:28;5.60;;;4.33;;
25627;SDS011;40915;50.826;4.356;2024-03-06T00:15:54;5.50;;;4.77;;
25627;SDS011;40915;50.826;4.356;2024-03-06T00:18:20;7.20;;;4.70;;
25627;SDS011;40915;50.826;4.356;2024-03-06T00:20:46;8.97;;;4.93;;
25627;SDS011;40915;50.826;4.356;2024-03-06T00:23:12;5.93;;;4.87;;
25627;SDS011;40915;50.826;4.356;2024-03-06T00:25:38;7.53;;;4.67;;
25627;SDS011;40915;50.826;4.356;2024-03-06T00:28:04;5.93;;;4.20;;
25627;SDS011;40915;50.826;4.356;2024-03-06T00:30:31;6.47;;;4.73;;
25627;SDS011;40915;50.826;4.356;2024-03-06T00:32:57;5.90;;;4.43;;
25627;SDS011;40915;50.826;4.356;2024-03-06T00:35:24;5.23;;;4.60;;
25627;SDS011;40915;50.826;4.356;2024-03-06T00:37:51;4.70;;;4.10;;
25627;SDS011;40915;50.826;4.356;2024-03-06T00:40:18;5.77;;;4.40;;
25627;SDS011;40915;50.826;4.356;2024-03-06T00:42:44;5.90;;;4.47;;
25627;SDS011;40915;50.826;4.356;2024-03-06T00:45:10;5.27;;;4.10;;
25627;SDS011;40915;50.826;4.356;2024-03-06T00:47:37;5.30;;;4.23;;
25627;SDS011;40915;50.826;4.356;2024-03-06T00:50:03;7.20;;;4.63;;
25627;SDS011;40915;50.826;4.356;2024-03-06T00:52:32;6.53;;;4.70;;
25627;SDS011;40915;50.826;4.356;2024-03-06T00:54:58;6.60;;;4.67;;
25627;SDS011;40915;50.826;4.356;2024-03-06T00:57:25;6.20;;;4.77;;
25627;SDS011;40915;50.826;4.356;2024-03-06T00:59:51;6.73;;;5.23;;
25627;SDS011;40915;50.826;4.356;2024-03-06T01:02:17;7.50;;;5.33;;
25627;SDS011;40915;50.826;4.356;2024-03-06T01:04:43;8.13;;;5.37;;
25627;SDS011;40915;50.826;4.356;2024-03-06T01:07:09;9.43;;;5.70;;
25627;SDS011;40915;50.826;4.356;2024-03-06T01:09:35;7.23;;;5.00;;
25627;SDS011;40915;50.826;4.356;2024-03-06T01:12:01;6.77;;;5.30;;
25627;SDS011;40915;50.826;4.356;2024-03-06T01:14:27;7.67;;;5.37;;
25627;SDS011;40915;50.826;4.356;2024-03-06T01:16:53;7.50;;;5.30;;
25627;SDS011;40915;50.826;4.356;2024-03-06T01:19:19;7.30;;;5.37;;
25627;SDS011;40915;50.826;4.356;2024-03-06T01:21:45;6.27;;;5.13;;
25627;SDS011;40915;50.826;4.356;2024-03-06T01:24:11;8.33;;;5.67;;
25627;SDS011;40915;50.826;4.356;2024-03-06T01:26:37;8.00;;;5.50;;
25627;SDS011;40915;50.826;4.356;2024-03-06T01:29:03;7.33;;;5.40;;
25627;SDS011;40915;50.826;4.356;2024-03-06T01:31:29;6.97;;;5.23;;
25627;SDS011;40915;50.826;4.356;2024-03-06T01:33:55;6.97;;;5.50;;
25627;SDS011;40915;50.826;4.356;2024-03-06T01:36:21;6.83;;;5.60;;
25627;SDS011;40915;50.826;4.356;2024-03-06T01:38:47;8.60;;;5.73;;
25627;SDS011;40915;50.826;4.356;2024-03-06T01:41:14;7.87;;;5.80;;
25627;SDS011;40915;50.826;4.356;2024-03-06T01:43:40;7.00;;;5.70;;
25627;SDS011;40915;50.826;4.356;2024-03-06T01:46:06;8.50;;;6.13;;
25627;SDS011;40915;50.826;4.356;2024-03-06T01:48:32;7.23;;;6.00;;
25627;SDS011;40915;50.826;4.356;2024-03-06T01:50:59;7.50;;;5.90;;
25627;SDS011;40915;50.826;4.356;2024-03-06T01:53:26;6.80;;;5.70;;
25627;SDS011;40915;50.826;4.356;2024-03-06T01:55:52;7.73;;;5.97;;
25627;SDS011;40915;50.826;4.356;2024-03-06T01:58:19;6.60;;;5.50;;
25627;SDS011;40915;50.826;4.356;2024-03-06T02:00:46;8.13;;;5.77;;
25627;SDS011;40915;50.826;4.356;2024-03-06T02:03:12;8.47;;;5.87;;
25627;SDS011;40915;50.826;4.356;2024-03-06T02:05:39;6.50;;;5.50;;
25627;SDS011;40915;50.826;4.356;2024-03-06T02:08:05;6.93;;;5.80;;
25627;SDS011;40915;50.826;4.356;2024-03-06T02:10:32;7.70;;;5.73;;
25627;SDS011;40915;50.826;4.356;2024-03-06T02:12:59;8.33;;;5.93;;
25627;SDS011;40915;50.826;4.356;2024-03-06T02:15:25;10.13;;;5.77;;
25627;SDS011;40915;50.826;4.356;2024-03-06T02:17:51;8.00;;;5.73;;
25627;SDS011;40915;50.826;4.356;2024-03-06T02:20:24;6.97;;;5.67;;
25627;SDS011;40915;50.826;4.356;2024-03-06T02:22:50;8.30;;;6.20;;
25627;SDS011;40915;50.826;4.356;2024-03-06T02:25:17;7.23;;;5.80;;
25627;SDS011;40915;50.826;4.356;2024-03-06T02:27:44;7.17;;;5.67;;
25627;SDS011;40915;50.826;4.356;2024-03-06T02:30:10;8.07;;;6.00;;
25627;SDS011;40915;50.826;4.356;2024-03-06T02:32:36;12.20;;;7.03;;
25627;SDS011;40915;50.826;4.356;2024-03-06T02:35:02;6.93;;;5.67;;
25627;SDS011;40915;50.826;4.356;2024-03-06T02:37:29;9.20;;;5.93;;
25627;SDS011;40915;50.826;4.356;2024-03-06T02:39:55;6.97;;;5.93;;
25627;SDS011;40915;50.826;4.356;2024-03-06T02:42:20;8.17;;;5.63;;
25627;SDS011;40915;50.826;4.356;2024-03-06T02:44:46;7.10;;;6.03;;
25627;SDS011;40915;50.826;4.356;2024-03-06T02:47:13;7.20;;;5.57;;
25627;SDS011;40915;50.826;4.356;2024-03-06T02:49:39;7.10;;;5.50;;
25627;SDS011;40915;50.826;4.356;2024-03-06T02:52:05;7.77;;;5.90;;
25627;SDS011;40915;50.826;4.356;2024-03-06T02:54:31;8.57;;;6.63;;
25627;SDS011;40915;50.826;4.356;2024-03-06T02:56:57;7.90;;;5.77;;
25627;SDS011;40915;50.826;4.356;2024-03-06T02:59:23;9.13;;;6.13;;
25627;SDS011;40915;50.826;4.356;2024-03-06T03:01:49;7.37;;;6.13;;
25627;SDS011;40915;50.826;4.356;2024-03-06T03:04:15;7.60;;;6.37;;
25627;SDS011;40915;50.826;4.356;2024-03-06T03:06:41;8.80;;;6.40;;
25627;SDS011;40915;50.826;4.356;2024-03-06T03:09:07;7.67;;;6.10;;
25627;SDS011;40915;50.826;4.356;2024-03-06T03:11:36;8.63;;;6.17;;
25627;SDS011;40915;50.826;4.356;2024-03-06T03:14:02;9.07;;;6.20;;
25627;SDS011;40915;50.826;4.356;2024-03-06T03:16:28;7.40;;;5.93;;
25627;SDS011;40915;50.826;4.356;2024-03-06T03:18:55;9.97;;;6.93;;
25627;SDS011;40915;50.826;4.356;2024-03-06T03:21:21;9.30;;;6.27;;
25627;SDS011;40915;50.826;4.356;2024-03-06T03:23:47;9.67;;;6.63;;
25627;SDS011;40915;50.826;4.356;2024-03-06T03:26:14;9.10;;;6.27;;
25627;SDS011;40915;50.826;4.356;2024-03-06T03:28:40;10.03;;;6.63;;
25627;SDS011;40915;50.826;4.356;2024-03-06T03:31:10;11.43;;;7.13;;
25627;SDS011;40915;50.826;4.356;2024-03-06T03:33:38;7.53;;;6.73;;
25627;SDS011;40915;50.826;4.356;2024-03-06T03:36:05;10.40;;;7.00;;
25627;SDS011;40915;50.826;4.356;2024-03-06T03:38:34;8.27;;;6.60;;
25627;SDS011;40915;50.826;4.356;2024-03-06T03:41:03;9.03;;;6.50;;
25627;SDS011;40915;50.826;4.356;2024-03-06T03:43:32;12.30;;;6.77;;
25627;SDS011;40915;50.826;4.356;2024-03-06T03:45:58;10.70;;;6.57;;
25627;SDS011;40915;50.826;4.356;2024-03-06T03:48:24;8.93;;;6.07;;
25627;SDS011;40915;50.826;4.356;2024-03-06T03:50:50;10.10;;;6.57;;
25627;SDS011;40915;50.826;4.356;2024-03-06T03:53:16;11.23;;;7.30;;
25627;SDS011;40915;50.826;4.356;2024-03-06T03:55:42;8.30;;;6.70;;
25627;SDS011;40915;50.826;4.356;2024-03-06T03:58:08;8.53;;;6.70;;
25627;SDS011;40915;50.826;4.356;2024-03-06T04:00:34;9.63;;;6.43;;
25627;SDS011;40915;50.826;4.356;2024-03-06T04:03:00;10.03;;;6.60;;
25627;SDS011;40915;50.826;4.356;2024-03-06T04:05:27;8.40;;;6.30;;
25627;SDS011;40915;50.826;4.356;2024-03-06T04:07:53;9.90;;;6.30;;
25627;SDS011;40915;50.826;4.356;2024-03-06T04:10:19;7.83;;;6.07;;
25627;SDS011;40915;50.826;4.356;2024-03-06T04:12:46;10.33;;;6.57;;
25627;SDS011;40915;50.826;4.356;2024-03-06T04:15:12;10.87;;;6.93;;
25627;SDS011;40915;50.826;4.356;2024-03-06T04:17:38;8.77;;;6.43;;
25627;SDS011;40915;50.826;4.356;2024-03-06T04:20:06;10.23;;;6.50;;
25627;SDS011;40915;50.826;4.356;2024-03-06T04:22:32;8.80;;;6.17;;
25627;SDS011;40915;50.826;4.356;2024-03-06T04:24:58;8.27;;;6.77;;
25627;SDS011;40915;50.826;4.356;2024-03-06T04:27:24;7.70;;;6.23;;
25627;SDS011;40915;50.826;4.356;2024-03-06T04:29:51;9.23;;;6.57;;
25627;SDS011;40915;50.826;4.356;2024-03-06T04:32:17;9.27;;;6.57;;
25627;SDS011;40915;50.826;4.356;2024-03-06T04:34:43;8.47;;;6.00;;
25627;SDS011;40915;50.826;4.356;2024-03-06T04:37:09;8.33;;;6.07;;
25627;SDS011;40915;50.826;4.356;2024-03-06T04:39:35;7.07;;;6.00;;
25627;SDS011;40915;50.826;4.356;2024-03-06T04:42:01;8.27;;;6.23;;
25627;SDS011;40915;50.826;4.356;2024-03-06T04:44:28;8.37;;;6.77;;
25627;SDS011;40915;50.826;4.356;2024-03-06T04:46:54;9.03;;;6.53;;
25627;SDS011;40915;50.826;4.356;2024-03-06T04:49:20;8.97;;;6.57;;
25627;SDS011;40915;50.826;4.356;2024-03-06T04:51:46;8.20;;;6.80;;
25627;SDS011;40915;50.826;4.356;2024-03-06T04:54:12;8.07;;;6.87;;
25627;SDS011;40915;50.826;4.356;2024-03-06T04:56:38;10.13;;;6.80;;
25627;SDS011;40915;50.826;4.356;2024-03-06T04:59:04;8.97;;;6.57;;
25627;SDS011;40915;50.826;4.356;2024-03-06T05:01:30;12.67;;;6.90;;
25627;SDS011;40915;50.826;4.356;2024-03-06T05:03:56;9.93;;;6.10;;
25627;SDS011;40915;50.826;4.356;2024-03-06T05:06:22;10.83;;;6.70;;
25627;SDS011;40915;50.826;4.356;2024-03-06T05:08:48;9.03;;;6.27;;
25627;SDS011;40915;50.826;4.356;2024-03-06T05:11:14;8.67;;;6.37;;
25627;SDS011;40915;50.826;4.356;2024-03-06T05:13:40;9.97;;;7.27;;
25627;SDS011;40915;50.826;4.356;2024-03-06T05:16:06;7.37;;;6.13;;
25627;SDS011;40915;50.826;4.356;2024-03-06T05:18:35;11.73;;;6.30;;
25627;SDS011;40915;50.826;4.356;2024-03-06T05:21:01;10.10;;;6.97;;
25627;SDS011;40915;50.826;4.356;2024-03-06T05:23:27;9.50;;;6.47;;
25627;SDS011;40915;50.826;4.356;2024-03-06T05:25:53;9.17;;;6.23;;
25627;SDS011;40915;50.826;4.356;2024-03-06T05:28:19;8.73;;;6.47;;
25627;SDS011;40915;50.826;4.356;2024-03-06T05:30:45;10.20;;;6.80;;
25627;SDS011;40915;50.826;4.356;2024-03-06T05:33:11;11.43;;;7.30;;
25627;SDS011;40915;50.826;4.356;2024-03-06T05:35:37;11.83;;;7.43;;
25627;SDS011;40915;50.826;4.356;2024-03-06T05:38:03;10.27;;;6.53;;
25627;SDS011;40915;50.826;4.356;2024-03-06T05:40:29;9.80;;;6.63;;
25627;SDS011;40915;50.826;4.356;2024-03-06T05:43:00;10.33;;;6.63;;
25627;SDS011;40915;50.826;4.356;2024-03-06T05:45:26;11.67;;;7.30;;
25627;SDS011;40915;50.826;4.356;2024-03-06T05:47:52;8.90;;;6.87;;
25627;SDS011;40915;50.826;4.356;2024-03-06T05:50:19;9.30;;;6.63;;
25627;SDS011;40915;50.826;4.356;2024-03-06T05:52:45;10.63;;;6.97;;
25627;SDS011;40915;50.826;4.356;2024-03-06T05:55:11;12.03;;;7.10;;
25627;SDS011;40915;50.826;4.356;2024-03-06T05:57:37;13.33;;;6.83;;
25627;SDS011;40915;50.826;4.356;2024-03-06T06:00:03;9.23;;;6.60;;
25627;SDS011;40915;50.826;4.356;2024-03-06T06:02:35;12.13;;;7.10;;
25627;SDS011;40915;50.826;4.356;2024-03-06T06:05:01;12.47;;;6.27;;
25627;SDS011;40915;50.826;4.356;2024-03-06T06:07:27;10.27;;;7.13;;
25627;SDS011;40915;50.826;4.356;2024-03-06T06:09:53;10.73;;;6.77;;
25627;SDS011;40915;50.826;4.356;2024-03-06T06:12:19;10.03;;;7.10;;
25627;SDS011;40915;50.826;4.356;2024-03-06T06:14:45;12.33;;;6.70;;
25627;SDS011;40915;50.826;4.356;2024-03-06T06:17:11;12.43;;;7.13;;
25627;SDS011;40915;50.826;4.356;2024-03-06T06:19:41;11.23;;;7.10;;
25627;SDS011;40915;50.826;4.356;2024-03-06T06:22:08;14.40;;;7.37;;
25627;SDS011;40915;50.826;4.356;2024-03-06T06:24:36;11.47;;;6.80;;
25627;SDS011;40915;50.826;4.356;2024-03-06T06:27:03;13.07;;;7.37;;
25627;SDS011;40915;50.826;4.356;2024-03-06T06:29:29;10.03;;;7.30;;
25627;SDS011;40915;50.826;4.356;2024-03-06T06:31:55;14.13;;;6.60;;
25627;SDS011;40915;50.826;4.356;2024-03-06T06:34:22;11.07;;;7.53;;
25627;SDS011;40915;50.826;4.356;2024-03-06T06:36:52;11.50;;;7.40;;
25627;SDS011;40915;50.826;4.356;2024-03-06T06:39:18;15.00;;;7.27;;
25627;SDS011;40915;50.826;4.356;2024-03-06T06:41:44;13.27;;;7.13;;
25627;SDS011;40915;50.826;4.356;2024-03-06T06:44:10;17.00;;;8.03;;
25627;SDS011;40915;50.826;4.356;2024-03-06T06:46:36;12.63;;;7.20;;
25627;SDS011;40915;50.826;4.356;2024-03-06T06:49:02;16.07;;;7.27;;
25627;SDS011;40915;50.826;4.356;2024-03-06T06:51:29;15.80;;;7.40;;
25627;SDS011;40915;50.826;4.356;2024-03-06T06:53:55;13.87;;;7.70;;
25627;SDS011;40915;50.826;4.356;2024-03-06T06:56:21;12.50;;;7.37;;
25627;SDS011;40915;50.826;4.356;2024-03-06T06:58:49;11.07;;;7.60;;
25627;SDS011;40915;50.826;4.356;2024-03-06T07:01:15;12.77;;;7.53;;
25627;SDS011;40915;50.826;4.356;2024-03-06T07:03:41;11.23;;;7.27;;
25627;SDS011;40915;50.826;4.356;2024-03-06T07:06:07;11.77;;;7.27;;
25627;SDS011;40915;50.826;4.356;2024-03-06T07:08:34;12.23;;;7.27;;
25627;SDS011;40915;50.826;4.356;2024-03-06T07:11:00;9.77;;;7.17;;
25627;SDS011;40915;50.826;4.356;2024-03-06T07:13:26;10.77;;;7.67;;
25627;SDS011;40915;50.826;4.356;2024-03-06T07:15:52;12.77;;;7.30;;
25627;SDS011;40915;50.826;4.356;2024-03-06T07:18:18;13.07;;;6.73;;
25627;SDS011;40915;50.826;4.356;2024-03-06T07:20:43;11.03;;;7.50;;
25627;SDS011;40915;50.826;4.356;2024-03-06T07:23:10;10.00;;;6.80;;
25627;SDS011;40915;50.826;4.356;2024-03-06T07:25:36;13.13;;;7.70;;
25627;SDS011;40915;50.826;4.356;2024-03-06T07:28:02;12.20;;;6.77;;
25627;SDS011;40915;50.826;4.356;2024-03-06T07:30:29;13.70;;;6.77;;
25627;SDS011;40915;50.826;4.356;2024-03-06T07:32:55;10.77;;;6.20;;
25627;SDS011;40915;50.826;4.356;2024-03-06T07:35:22;9.80;;;6.77;;
25627;SDS011;40915;50.826;4.356;2024-03-06T07:37:48;14.30;;;6.40;;
25627;SDS011;40915;50.826;4.356;2024-03-06T07:40:14;8.37;;;5.73;;
25627;SDS011;40915;50.826;4.356;2024-03-06T07:42:40;12.13;;;7.60;;
25627;SDS011;40915;50.826;4.356;2024-03-06T07:45:06;8.40;;;5.87;;
25627;SDS011;40915;50.826;4.356;2024-03-06T07:47:34;9.20;;;5.90;;
25627;SDS011;40915;50.826;4.356;2024-03-06T07:50:00;7.70;;;5.77;;
25627;SDS011;40915;50.826;4.356;2024-03-06T07:52:26;8.83;;;5.60;;
25627;SDS011;40915;50.826;4.356;2024-03-06T07:54:52;10.40;;;5.87;;
25627;SDS011;40915;50.826;4.356;2024-03-06T07:57:18;10.47;;;6.60;;
25627;SDS011;40915;50.826;4.356;2024-03-06T07:59:44;9.83;;;5.83;;
25627;SDS011;40915;50.826;4.356;2024-03-06T08:02:10;9.53;;;5.97;;
25627;SDS011;40915;50.826;4.356;2024-03-06T08:04:36;9.67;;;5.40;;
25627;SDS011;40915;50.826;4.356;2024-03-06T08:07:02;11.17;;;5.87;;
25627;SDS011;40915;50.826;4.356;2024-03-06T08:09:28;8.77;;;5.90;;
25627;SDS011;40915;50.826;4.356;2024-03-06T08:11:54;11.17;;;5.70;;
25627;SDS011;40915;50.826;4.356;2024-03-06T08:14:20;8.97;;;5.40;;
25627;SDS011;40915;50.826;4.356;2024-03-06T08:16:46;7.67;;;5.17;;
25627;SDS011;40915;50.826;4.356;2024-03-06T08:19:12;15.57;;;5.93;;
25627;SDS011;40915;50.826;4.356;2024-03-06T08:21:39;11.63;;;5.90;;
25627;SDS011;40915;50.826;4.356;2024-03-06T08:24:05;8.10;;;5.00;;
25627;SDS011;40915;50.826;4.356;2024-03-06T08:26:31;8.07;;;4.80;;
25627;SDS011;40915;50.826;4.356;2024-03-06T08:28:57;8.67;;;4.77;;
25627;SDS011;40915;50.826;4.356;2024-03-06T08:31:23;12.33;;;6.23;;
25627;SDS011;40915;50.826;4.356;2024-03-06T08:33:50;11.57;;;5.60;;
25627;SDS011;40915;50.826;4.356;2024-03-06T08:36:18;10.03;;;5.50;;
25627;SDS011;40915;50.826;4.356;2024-03-06T08:38:44;7.73;;;5.70;;
25627;SDS011;40915;50.826;4.356;2024-03-06T08:41:10;9.27;;;5.50;;
25627;SDS011;40915;50.826;4.356;2024-03-06T08:43:36;9.60;;;4.90;;
25627;SDS011;40915;50.826;4.356;2024-03-06T08:46:02;11.17;;;5.60;;
25627;SDS011;40915;50.826;4.356;2024-03-06T08:48:30;9.20;;;5.37;;
25627;SDS011;40915;50.826;4.356;2024-03-06T08:50:56;9.93;;;5.87;;
25627;SDS011;40915;50.826;4.356;2024-03-06T08:53:22;11.20;;;6.00;;
25627;SDS011;40915;50.826;4.356;2024-03-06T08:55:48;7.63;;;5.77;;
25627;SDS011;40915;50.826;4.356;2024-03-06T08:58:14;9.87;;;6.60;;
25627;SDS011;40915;50.826;4.356;2024-03-06T09:00:40;9.57;;;6.10;;
25627;SDS011;40915;50.826;4.356;2024-03-06T09:03:06;8.20;;;6.03;;
25627;SDS011;40915;50.826;4.356;2024-03-06T09:05:32;9.27;;;6.23;;
25627;SDS011;40915;50.826;4.356;2024-03-06T09:07:58;11.33;;;6.37;;
25627;SDS011;40915;50.826;4.356;2024-03-06T09:10:25;8.13;;;5.47;;
25627;SDS011;40915;50.826;4.356;2024-03-06T09:12:51;10.33;;;5.63;;
25627;SDS011;40915;50.826;4.356;2024-03-06T09:15:17;8.40;;;5.93;;
25627;SDS011;40915;50.826;4.356;2024-03-06T09:17:43;8.43;;;6.00;;
25627;SDS011;40915;50.826;4.356;2024-03-06T09:20:10;7.17;;;5.50;;
25627;SDS011;40915;50.826;4.356;2024-03-06T09:22:39;8.37;;;5.93;;
25627;SDS011;40915;50.826;4.356;2024-03-06T09:25:06;10.70;;;6.73;;
25627;SDS011;40915;50.826;4.356;2024-03-06T09:27:32;10.63;;;6.50;;
25627;SDS011;40915;50.826;4.356;2024-03-06T09:29:58;10.37;;;6.00;;
25627;SDS011;40915;50.826;4.356;2024-03-06T09:32:24;9.83;;;6.57;;
25627;SDS011;40915;50.826;4.356;2024-03-06T09:34:51;8.37;;;5.50;;
25627;SDS011;40915;50.826;4.356;2024-03-06T09:37:17;6.10;;;5.00;;
25627;SDS011;40915;50.826;4.356;2024-03-06T09:39:43;9.47;;;5.80;;
25627;SDS011;40915;50.826;4.356;2024-03-06T09:42:12;9.23;;;6.77;;
25627;SDS011;40915;50.826;4.356;2024-03-06T09:44:38;8.53;;;5.83;;
25627;SDS011;40915;50.826;4.356;2024-03-06T09:47:04;8.23;;;5.47;;
25627;SDS011;40915;50.826;4.356;2024-03-06T09:49:32;8.00;;;5.57;;
25627;SDS011;40915;50.826;4.356;2024-03-06T09:51:59;6.90;;;4.93;;
25627;SDS011;40915;50.826;4.356;2024-03-06T09:54:25;9.83;;;5.33;;
25627;SDS011;40915;50.826;4.356;2024-03-06T09:56:52;9.53;;;5.63;;
25627;SDS011;40915;50.826;4.356;2024-03-06T09:59:20;8.87;;;4.93;;
25627;SDS011;40915;50.826;4.356;2024-03-06T10:01:55;8.65;;;5.18;;
25627;SDS011;40915;50.826;4.356;2024-03-06T10:04:25;5.93;;;4.80;;
25627;SDS011;40915;50.826;4.356;2024-03-06T10:06:55;5.10;;;4.13;;
25627;SDS011;40915;50.826;4.356;2024-03-06T10:09:21;8.77;;;4.13;;
25627;SDS011;40915;50.826;4.356;2024-03-06T10:11:48;5.57;;;3.42;;
25627;SDS011;40915;50.826;4.356;2024-03-06T10:14:14;6.32;;;3.97;;
25627;SDS011;40915;50.826;4.356;2024-03-06T10:16:58;7.32;;;3.28;;
25627;SDS011;40915;50.826;4.356;2024-03-06T10:19:25;8.07;;;3.63;;
25627;SDS011;40915;50.826;4.356;2024-03-06T10:21:58;9.10;;;4.00;;
25627;SDS011;40915;50.826;4.356;2024-03-06T10:24:25;7.45;;;3.33;;
25627;SDS011;40915;50.826;4.356;2024-03-06T10:26:51;8.23;;;4.25;;
25627;SDS011;40915;50.826;4.356;2024-03-06T10:29:22;6.97;;;4.28;;
25627;SDS011;40915;50.826;4.356;2024-03-06T10:34:19;8.13;;;4.45;;
25627;SDS011;40915;50.826;4.356;2024-03-06T10:36:47;7.15;;;4.45;;
25627;SDS011;40915;50.826;4.356;2024-03-06T10:39:15;11.82;;;4.57;;
25627;SDS011;40915;50.826;4.356;2024-03-06T10:41:44;6.90;;;3.58;;
25627;SDS011;40915;50.826;4.356;2024-03-06T10:44:12;7.57;;;3.90;;
25627;SDS011;40915;50.826;4.356;2024-03-06T10:46:39;6.75;;;4.00;;
25627;SDS011;40915;50.826;4.356;2024-03-06T10:49:07;5.97;;;3.90;;
25627;SDS011;40915;50.826;4.356;2024-03-06T10:51:34;11.02;;;4.50;;
25627;SDS011;40915;50.826;4.356;2024-03-06T10:54:00;8.18;;;3.92;;
25627;SDS011;40915;50.826;4.356;2024-03-06T10:56:27;6.53;;;3.38;;
25627;SDS011;40915;50.826;4.356;2024-03-06T10:58:53;6.97;;;3.58;;
25627;SDS011;40915;50.826;4.356;2024-03-06T11:01:22;6.78;;;3.20;;
25627;SDS011;40915;50.826;4.356;2024-03-06T11:03:49;6.00;;;3.72;;
25627;SDS011;40915;50.826;4.356;2024-03-06T11:06:15;8.68;;;3.90;;
25627;SDS011;40915;50.826;4.356;2024-03-06T11:08:42;7.63;;;4.47;;
25627;SDS011;40915;50.826;4.356;2024-03-06T11:11:22;7.15;;;4.07;;
25627;SDS011;40915;50.826;4.356;2024-03-06T11:13:48;8.48;;;4.10;;
25627;SDS011;40915;50.826;4.356;2024-03-06T11:16:14;6.10;;;3.55;;
25627;SDS011;40915;50.826;4.356;2024-03-06T11:18:41;8.60;;;3.80;;
25627;SDS011;40915;50.826;4.356;2024-03-06T11:24:11;5.32;;;3.13;;
25627;SDS011;40915;50.826;4.356;2024-03-06T11:26:22;10.77;;;3.38;;
25627;SDS011;40915;50.826;4.356;2024-03-06T11:28:49;4.97;;;3.58;;
25627;SDS011;40915;50.826;4.356;2024-03-06T11:31:16;7.20;;;3.65;;
25627;SDS011;40915;50.826;4.356;2024-03-06T11:33:45;9.10;;;4.25;;
25627;SDS011;40915;50.826;4.356;2024-03-06T11:38:42;9.35;;;4.30;;
25627;SDS011;40915;50.826;4.356;2024-03-06T11:41:09;10.10;;;3.83;;
25627;SDS011;40915;50.826;4.356;2024-03-06T11:43:41;5.18;;;3.40;;
25627;SDS011;40915;50.826;4.356;2024-03-06T11:46:11;9.75;;;3.60;;
25627;SDS011;40915;50.826;4.356;2024-03-06T11:48:37;9.55;;;4.30;;
25627;SDS011;40915;50.826;4.356;2024-03-06T11:51:04;8.40;;;3.85;;
25627;SDS011;40915;50.826;4.356;2024-03-06T11:53:30;7.50;;;4.18;;
25627;SDS011;40915;50.826;4.356;2024-03-06T11:55:58;7.32;;;3.30;;
25627;SDS011;40915;50.826;4.356;2024-03-06T11:58:24;8.30;;;3.38;;
25627;SDS011;40915;50.826;4.356;2024-03-06T12:00:50;6.80;;;3.08;;
25627;SDS011;40915;50.826;4.356;2024-03-06T12:03:17;6.45;;;2.88;;
25627;SDS011;40915;50.826;4.356;2024-03-06T12:05:44;9.40;;;3.72;;
25627;SDS011;40915;50.826;4.356;2024-03-06T12:08:11;6.75;;;3.28;;
25627;SDS011;40915;50.826;4.356;2024-03-06T12:10:38;6.45;;;2.88;;
25627;SDS011;40915;50.826;4.356;2024-03-06T12:13:07;6.47;;;3.35;;
25627;SDS011;40915;50.826;4.356;2024-03-06T12:15:34;7.82;;;3.20;;
25627;SDS011;40915;50.826;4.356;2024-03-06T12:18:00;8.68;;;3.08;;
25627;SDS011;40915;50.826;4.356;2024-03-06T12:20:27;7.15;;;3.13;;
25627;SDS011;40915;50.826;4.356;2024-03-06T12:22:53;5.53;;;2.70;;
25627;SDS011;40915;50.826;4.356;2024-03-06T12:25:26;7.95;;;3.60;;
25627;SDS011;40915;50.826;4.356;2024-03-06T12:27:53;8.63;;;3.42;;
25627;SDS011;40915;50.826;4.356;2024-03-06T12:30:20;8.00;;;3.83;;
25627;SDS011;40915;50.826;4.356;2024-03-06T12:32:59;8.57;;;3.92;;
25627;SDS011;40915;50.826;4.356;2024-03-06T12:35:29;6.45;;;3.58;;
25627;SDS011;40915;50.826;4.356;2024-03-06T12:37:55;9.95;;;3.97;;
25627;SDS011;40915;50.826;4.356;2024-03-06T12:40:21;5.13;;;3.10;;
25627;SDS011;40915;50.826;4.356;2024-03-06T12:42:47;13.13;;;3.97;;
25627;SDS011;40915;50.826;4.356;2024-03-06T12:45:14;8.63;;;5.15;;
25627;SDS011;40915;50.826;4.356;2024-03-06T12:47:41;8.88;;;4.07;;
25627;SDS011;40915;50.826;4.356;2024-03-06T12:50:07;5.93;;;3.70;;
25627;SDS011;40915;50.826;4.356;2024-03-06T12:52:33;10.60;;;4.00;;
25627;SDS011;40915;50.826;4.356;2024-03-06T12:55:00;9.60;;;3.88;;
25627;SDS011;40915;50.826;4.356;2024-03-06T12:57:26;7.35;;;3.13;;
25627;SDS011;40915;50.826;4.356;2024-03-06T12:59:55;5.45;;;3.20;;
25627;SDS011;40915;50.826;4.356;2024-03-06T13:02:21;8.05;;;3.78;;
25627;SDS011;40915;50.826;4.356;2024-03-06T13:04:47;7.25;;;3.40;;
25627;SDS011;40915;50.826;4.356;2024-03-06T13:07:13;6.43;;;3.40;;
25627;SDS011;40915;50.826;4.356;2024-03-06T13:09:39;7.63;;;3.60;;
25627;SDS011;40915;50.826;4.356;2024-03-06T13:12:05;5.65;;;3.33;;
25627;SDS011;40915;50.826;4.356;2024-03-06T13:14:32;8.35;;;3.53;;
25627;SDS011;40915;50.826;4.356;2024-03-06T13:16:58;7.57;;;3.97;;
25627;SDS011;40915;50.826;4.356;2024-03-06T13:19:24;8.95;;;4.03;;
25627;SDS011;40915;50.826;4.356;2024-03-06T13:21:50;3.92;;;2.92;;
25627;SDS011;40915;50.826;4.356;2024-03-06T13:24:18;6.72;;;3.75;;
25627;SDS011;40915;50.826;4.356;2024-03-06T13:26:44;7.25;;;3.65;;
25627;SDS011;40915;50.826;4.356;2024-03-06T13:29:10;8.02;;;3.42;;
25627;SDS011;40915;50.826;4.356;2024-03-06T13:31:36;5.10;;;3.33;;
25627;SDS011;40915;50.826;4.356;2024-03-06T13:34:03;4.70;;;3.05;;
25627;SDS011;40915;50.826;4.356;2024-03-06T13:36:29;7.28;;;3.55;;
25627;SDS011;40915;50.826;4.356;2024-03-06T13:38:55;9.00;;;3.72;;
25627;SDS011;40915;50.826;4.356;2024-03-06T13:41:22;7.85;;;4.00;;
25627;SDS011;40915;50.826;4.356;2024-03-06T13:43:48;7.32;;;3.45;;
25627;SDS011;40915;50.826;4.356;2024-03-06T13:46:14;6.65;;;3.30;;
25627;SDS011;40915;50.826;4.356;2024-03-06T13:48:40;5.65;;;2.75;;
25627;SDS011;40915;50.826;4.356;2024-03-06T13:51:06;5.45;;;3.10;;
25627;SDS011;40915;50.826;4.356;2024-03-06T13:53:32;4.85;;;2.63;;
25627;SDS011;40915;50.826;4.356;2024-03-06T13:55:58;5.88;;;2.65;;
25627;SDS011;40915;50.826;4.356;2024-03-06T13:58:24;10.90;;;2.70;;
25627;SDS011;40915;50.826;4.356;2024-03-06T14:00:51;6.43;;;2.90;;
25627;SDS011;40915;50.826;4.356;2024-03-06T14:03:17;8.68;;;2.85;;
25627;SDS011;40915;50.826;4.356;2024-03-06T14:05:43;6.75;;;2.33;;
25627;SDS011;40915;50.826;4.356;2024-03-06T14:08:09;5.38;;;2.72;;
25627;SDS011;40915;50.826;4.356;2024-03-06T14:10:37;4.57;;;2.67;;
25627;SDS011;40915;50.826;4.356;2024-03-06T14:13:04;6.30;;;2.72;;
25627;SDS011;40915;50.826;4.356;2024-03-06T14:15:31;4.25;;;2.60;;
25627;SDS011;40915;50.826;4.356;2024-03-06T14:17:57;7.03;;;2.78;;
25627;SDS011;40915;50.826;4.356;2024-03-06T14:20:23;4.63;;;2.80;;
25627;SDS011;40915;50.826;4.356;2024-03-06T14:22:49;6.18;;;2.92;;
25627;SDS011;40915;50.826;4.356;2024-03-06T14:25:15;5.45;;;2.67;;
25627;SDS011;40915;50.826;4.356;2024-03-06T14:27:42;7.47;;;2.60;;
25627;SDS011;40915;50.826;4.356;2024-03-06T14:30:09;4.45;;;1.98;;
25627;SDS011;40915;50.826;4.356;2024-03-06T14:32:39;6.43;;;2.05;;
25627;SDS011;40915;50.826;4.356;2024-03-06T14:35:05;5.72;;;2.17;;
25627;SDS011;40915;50.826;4.356;2024-03-06T14:37:32;4.07;;;1.95;;
25627;SDS011;40915;50.826;4.356;2024-03-06T14:39:58;5.13;;;2.08;;
25627;SDS011;40915;50.826;4.356;2024-03-06T14:42:24;3.70;;;1.77;;
25627;SDS011;40915;50.826;4.356;2024-03-06T14:44:50;4.82;;;2.13;;
25627;SDS011;40915;50.826;4.356;2024-03-06T14:47:16;6.88;;;2.30;;
25627;SDS011;40915;50.826;4.356;2024-03-06T14:49:42;4.18;;;1.85;;